• Join FlightAware (Why Join?)
  • Login
  • US Flag 
05:21AM EDT


 

Airport Tracker/Info


-or-


 

Live Flight TrackerFlight Track Log ✈ THY1073 ✈ 19-Feb-2014 ✈ LTBA / IST - LATI / TIA

Flight Track Log - Related Links

Times and Time Zones

All times are in EST time to prevent confusion due to time zone crossing. See the THY1073 flight status page for this flight to view local times or setup timezone preferences in your user account.

Time Position Orientation Groundspeed Altitude Reporting Facility
EST Latitude Longitude Course Direction KTS MPH feet Rate Location/Type
12:53AM 41.0682 27.7230 277° West  Level Estimated
12:54AM 41.0777 27.6008 276° West  Level Estimated
12:55AM 41.0871 27.4786 276° West  Level Estimated
12:56AM 41.0964 27.3563 276° West  Level Estimated
12:57AM 41.1055 27.2341 276° West  Level Estimated
12:58AM 41.1145 27.1117 276° West  Level Estimated
12:59AM 41.1233 26.9894 276° West  Level Estimated
01:00AM 41.1320 26.8670 275° West  Level Estimated
01:01AM 41.1407 26.7445 275° West  Level Estimated
01:02AM 41.1491 26.6221 275° West  Level Estimated
01:03AM 41.1575 26.4996 275° West  Level Estimated
01:04AM 41.1657 26.3771 275° West  Level Estimated
01:05AM 41.1738 26.2545 275° West  Level Estimated
01:06AM 41.1817 26.1319 275° West  Level Estimated
01:07AM 41.1895 26.0093 275° West  Level Estimated
01:08AM 41.1972 25.8867 275° West  Level Estimated
01:09AM 41.2048 25.7640 275° West  Level Estimated
01:10AM 41.2122 25.6413 275° West  Level Estimated
01:11AM 41.2195 25.5186 275° West  Level Estimated
01:12AM 41.2267 25.3958 274° West  Level Estimated
01:13AM 41.2337 25.2731 274° West  Level Estimated
01:14AM 41.2406 25.1502 274° West  Level Estimated
01:15AM 41.2474 25.0274 274° West  Level Estimated
01:16AM 41.2541 24.9046 274° West  Level Estimated
01:17AM 41.2606 24.7817 274° West  Level Estimated
01:18AM 41.2669 24.6588 274° West  Level Estimated
01:19AM 41.2732 24.5358 274° West  Level Estimated
01:20AM 41.2793 24.4129 274° West  Level Estimated
01:21AM 41.2853 24.2899 274° West  Level Estimated
01:22AM 41.2912 24.1669 274° West  Level Estimated
01:23AM 41.2969 24.0439 274° West  Level Estimated
01:24AM 41.3025 23.9208 274° West  Level Estimated
01:25AM 41.3080 23.7978 273° West  Level Estimated
01:26AM 41.3133 23.6747 273° West  Level Estimated
01:27AM 41.3185 23.5516 273° West  Level Estimated
01:28AM 41.3236 23.4285 273° West  Level Estimated
01:29AM 41.3285 23.3053 273° West  Level Estimated
01:30AM 41.3334 23.1822 273° West  Level Estimated
01:31AM 41.3380 23.0590 273° West  Level Estimated
01:32AM 41.3426 22.9358 273° West  Level Estimated
01:33AM 41.3470 22.8126 273° West  Level Estimated
01:34AM 41.3513 22.6894 273° West  Level Estimated
01:35AM 41.3554 22.5661 273° West  Level Estimated
01:36AM 41.3595 22.4429 273° West  Level Estimated
01:37AM 41.3634 22.3196 272° West  Level Estimated
01:38AM 41.3671 22.1963 272° West  Level Estimated
01:39AM 41.3708 22.0730 272° West  Level Estimated
01:40AM 41.3742 21.9497 272° West  Level Estimated
01:41AM 41.3776 21.8263 272° West  Level Estimated
01:42AM 41.3809 21.7030 272° West  Level Estimated
01:43AM 41.3839 21.5796 272° West  Level Estimated
01:44AM 41.3869 21.4563 272° West  Level Estimated
01:45AM 41.3898 21.3329 272° West  Level Estimated
01:46AM 41.3925 21.2095 272° West  Level Estimated
01:47AM 41.3951 21.0861 272° West  Level Estimated
01:48AM 41.3975 20.9627 272° West  Level Estimated
01:49AM 41.3998 20.8393 271° West  Level Estimated
01:50AM 41.4020 20.7158 271° West  Level Estimated
01:51AM 41.4040 20.5924 271° West  Level Estimated
01:52AM 41.4059 20.4690 271° West  Level Estimated
01:53AM 41.4077 20.3455 271° West  Level Estimated
01:54AM 41.4094 20.2221 271° West  Level Estimated
01:55AM 41.4109 20.0986 271° West  Level Estimated
01:56AM 41.4123 19.9751 271° West  Level Estimated
01:57AM 41.4136 19.8517 271° West  Level Estimated
01:58AM 41.4147 19.7282 271° West  Level Estimated
01:59AM 41.4147 19.7206 271° West  Level Estimated
02:00AM 41.4147 19.7206 21° North  Level Estimated
02:01AM 41.4147 19.7206 21° North  Level Estimated
02:02AM 41.4147 19.7206 21° North  Level Estimated
02:03AM 41.4147 19.7206 21° North  Level Estimated
02:04AM 41.4147 19.7206 21° North  Level Estimated
02:05AM 41.4147 19.7206 21° North  Level Estimated
02:06AM 41.4147 19.7206 21° North  Level Estimated
02:07AM 41.4147 19.7206 21° North  Level Estimated
02:08AM 41.4147 19.7206 21° North  Level Estimated
02:09AM 41.4147 19.7206 21° North  Level Estimated
02:10AM 41.4147 19.7206 21° North  Level Estimated
02:11AM 41.4147 19.7206 21° North  Level Estimated
02:12AM 41.4147 19.7206 21° North  Level Estimated
02:13AM 41.4147 19.7206 21° North  Level Estimated